sensor_id;sensor_type;location;lat;lon;timestamp;pressure;altitude;pressure_sealevel;temperature;humidity
12949;BME280;6539;49.476;8.484;2022-12-11T00:01:12;100046.31;;;2.52;63.79
12949;BME280;6539;49.476;8.484;2022-12-11T00:03:38;100050.41;;;2.42;64.10
12949;BME280;6539;49.476;8.484;2022-12-11T00:06:12;100054.38;;;2.48;64.37
12949;BME280;6539;49.476;8.484;2022-12-11T00:08:38;100054.44;;;2.52;64.17
12949;BME280;6539;49.476;8.484;2022-12-11T00:11:07;100066.97;;;2.60;63.92
12949;BME280;6539;49.476;8.484;2022-12-11T00:13:36;100058.84;;;2.37;64.57
12949;BME280;6539;49.476;8.484;2022-12-11T00:16:03;100065.38;;;2.36;64.69
12949;BME280;6539;49.476;8.484;2022-12-11T00:18:29;100062.66;;;2.36;65.23
12949;BME280;6539;49.476;8.484;2022-12-11T00:21:04;100058.94;;;2.44;64.69
12949;BME280;6539;49.476;8.484;2022-12-11T00:23:35;100056.09;;;2.56;64.97
12949;BME280;6539;49.476;8.484;2022-12-11T00:26:11;100053.16;;;2.65;64.78
12949;BME280;6539;49.476;8.484;2022-12-11T00:28:40;100054.03;;;2.72;64.79
12949;BME280;6539;49.476;8.484;2022-12-11T00:31:10;100061.88;;;2.77;64.45
12949;BME280;6539;49.476;8.484;2022-12-11T00:33:37;100066.47;;;2.73;64.40
12949;BME280;6539;49.476;8.484;2022-12-11T00:36:10;100067.34;;;2.81;64.06
12949;BME280;6539;49.476;8.484;2022-12-11T00:38:36;100075.72;;;2.72;63.99
12949;BME280;6539;49.476;8.484;2022-12-11T00:41:05;100069.31;;;2.61;64.46
12949;BME280;6539;49.476;8.484;2022-12-11T00:43:34;100061.63;;;2.63;64.71
12949;BME280;6539;49.476;8.484;2022-12-11T00:46:00;100057.34;;;2.62;64.61
12949;BME280;6539;49.476;8.484;2022-12-11T00:48:26;100058.47;;;2.61;64.60
12949;BME280;6539;49.476;8.484;2022-12-11T00:50:53;100060.91;;;2.66;64.69
12949;BME280;6539;49.476;8.484;2022-12-11T00:53:22;100056.09;;;2.56;64.73
12949;BME280;6539;49.476;8.484;2022-12-11T00:55:48;100058.47;;;2.61;64.90
12949;BME280;6539;49.476;8.484;2022-12-11T00:58:16;100052.06;;;2.69;64.73
12949;BME280;6539;49.476;8.484;2022-12-11T01:00:46;100050.50;;;2.68;64.46
12949;BME280;6539;49.476;8.484;2022-12-11T01:03:18;100054.41;;;2.71;64.42
12949;BME280;6539;49.476;8.484;2022-12-11T01:05:55;100042.22;;;2.61;64.07
12949;BME280;6539;49.476;8.484;2022-12-11T01:08:21;100052.59;;;2.56;65.08
12949;BME280;6539;49.476;8.484;2022-12-11T01:10:47;100054.22;;;2.60;65.08
12949;BME280;6539;49.476;8.484;2022-12-11T01:13:20;100057.78;;;2.64;64.51
12949;BME280;6539;49.476;8.484;2022-12-11T01:15:50;100049.69;;;2.68;64.64
12949;BME280;6539;49.476;8.484;2022-12-11T01:18:16;100043.84;;;2.66;64.10
12949;BME280;6539;49.476;8.484;2022-12-11T01:20:42;100046.22;;;2.67;64.05
12949;BME280;6539;49.476;8.484;2022-12-11T01:23:11;100059.78;;;2.67;64.85
12949;BME280;6539;49.476;8.484;2022-12-11T01:25:39;100049.41;;;2.73;64.70
12949;BME280;6539;49.476;8.484;2022-12-11T01:28:06;100054.22;;;2.83;64.73
12949;BME280;6539;49.476;8.484;2022-12-11T01:30:32;100046.59;;;2.88;64.23
12949;BME280;6539;49.476;8.484;2022-12-11T01:32:58;100063.31;;;2.94;64.00
12949;BME280;6539;49.476;8.484;2022-12-11T01:35:25;100066.81;;;2.94;63.98
12949;BME280;6539;49.476;8.484;2022-12-11T01:37:51;100064.56;;;3.00;63.97
12949;BME280;6539;49.476;8.484;2022-12-11T01:40:19;100061.09;;;2.99;63.39
12949;BME280;6539;49.476;8.484;2022-12-11T01:42:45;100053.38;;;3.01;63.81
12949;BME280;6539;49.476;8.484;2022-12-11T01:47:59;100060.84;;;3.08;63.20
12949;BME280;6539;49.476;8.484;2022-12-11T01:50:30;100060.09;;;3.11;63.69
12949;BME280;6539;49.476;8.484;2022-12-11T01:52:58;100060.19;;;3.15;63.41
12949;BME280;6539;49.476;8.484;2022-12-11T01:55:26;100049.63;;;3.09;63.32
12949;BME280;6539;49.476;8.484;2022-12-11T01:57:53;100034.09;;;3.06;63.46
12949;BME280;6539;49.476;8.484;2022-12-11T02:00:23;100044.59;;;3.08;63.84
12949;BME280;6539;49.476;8.484;2022-12-11T02:02:51;100073.78;;;2.95;63.78
12949;BME280;6539;49.476;8.484;2022-12-11T02:05:17;100072.28;;;2.98;63.89
12949;BME280;6539;49.476;8.484;2022-12-11T02:07:51;100070.66;;;2.93;64.23
12949;BME280;6539;49.476;8.484;2022-12-11T02:10:35;100070.75;;;2.97;64.33
12949;BME280;6539;49.476;8.484;2022-12-11T02:13:28;100081.50;;;2.93;64.28
12949;BME280;6539;49.476;8.484;2022-12-11T02:16:25;100075.66;;;2.91;64.61
12949;BME280;6539;49.476;8.484;2022-12-11T02:19:07;100082.59;;;2.89;64.79
12949;BME280;6539;49.476;8.484;2022-12-11T02:21:45;100070.56;;;2.86;65.05
12949;BME280;6539;49.476;8.484;2022-12-11T02:27:28;100069.78;;;2.86;65.06
12949;BME280;6539;49.476;8.484;2022-12-11T02:30:09;100061.75;;;2.70;64.58
12949;BME280;6539;49.476;8.484;2022-12-11T02:35:39;100073.03;;;2.53;66.11
12949;BME280;6539;49.476;8.484;2022-12-11T02:38:27;100075.09;;;2.60;65.74
12949;BME280;6539;49.476;8.484;2022-12-11T02:41:03;100068.63;;;2.64;65.30
12949;BME280;6539;49.476;8.484;2022-12-11T02:43:31;100065.63;;;2.69;65.03
12949;BME280;6539;49.476;8.484;2022-12-11T02:45:59;100060.00;;;2.81;64.78
12949;BME280;6539;49.476;8.484;2022-12-11T02:48:26;100060.38;;;2.80;64.72
12949;BME280;6539;49.476;8.484;2022-12-11T02:50:57;100060.84;;;2.85;64.13
12949;BME280;6539;49.476;8.484;2022-12-11T02:53:30;100065.13;;;2.86;64.39
12949;BME280;6539;49.476;8.484;2022-12-11T02:56:23;100057.72;;;2.83;63.88
12949;BME280;6539;49.476;8.484;2022-12-11T02:59:04;100054.22;;;2.83;63.64
12949;BME280;6539;49.476;8.484;2022-12-11T03:01:36;100056.88;;;2.79;64.05
12949;BME280;6539;49.476;8.484;2022-12-11T03:04:02;100063.66;;;2.70;64.63
12949;BME280;6539;49.476;8.484;2022-12-11T03:06:41;100066.47;;;2.73;64.43
12949;BME280;6539;49.476;8.484;2022-12-11T03:09:11;100063.00;;;2.76;64.51
12949;BME280;6539;49.476;8.484;2022-12-11T03:11:37;100062.31;;;2.79;64.60
12949;BME280;6539;49.476;8.484;2022-12-11T03:14:07;100060.31;;;2.76;64.11
12949;BME280;6539;49.476;8.484;2022-12-11T03:17:32;100064.31;;;2.82;64.65
12949;BME280;6539;49.476;8.484;2022-12-11T03:20:11;100071.28;;;2.83;64.13
12949;BME280;6539;49.476;8.484;2022-12-11T03:23:29;100067.84;;;2.86;64.15
12949;BME280;6539;49.476;8.484;2022-12-11T03:25:55;100063.63;;;2.89;64.21
12949;BME280;6539;49.476;8.484;2022-12-11T03:28:50;100056.16;;;2.82;64.39
12949;BME280;6539;49.476;8.484;2022-12-11T03:31:45;100059.78;;;2.90;64.25
12949;BME280;6539;49.476;8.484;2022-12-11T03:34:31;100057.09;;;2.93;63.94
12949;BME280;6539;49.476;8.484;2022-12-11T03:37:00;100056.84;;;3.02;63.82
12949;BME280;6539;49.476;8.484;2022-12-11T03:39:32;100066.16;;;3.01;64.10
12949;BME280;6539;49.476;8.484;2022-12-11T03:42:07;100077.72;;;2.98;63.94
12949;BME280;6539;49.476;8.484;2022-12-11T03:44:37;100081.44;;;2.90;64.11
12949;BME280;6539;49.476;8.484;2022-12-11T03:47:07;100079.91;;;2.89;64.36
12949;BME280;6539;49.476;8.484;2022-12-11T03:49:41;100082.66;;;2.92;64.13
12949;BME280;6539;49.476;8.484;2022-12-11T03:52:11;100076.44;;;2.92;64.22
12949;BME280;6539;49.476;8.484;2022-12-11T03:54:44;100076.88;;;2.94;63.90
12949;BME280;6539;49.476;8.484;2022-12-11T03:57:21;100072.66;;;2.96;64.23
12949;BME280;6539;49.476;8.484;2022-12-11T03:59:52;100074.34;;;3.04;64.73
12949;BME280;6539;49.476;8.484;2022-12-11T04:02:18;100074.75;;;3.06;64.85
12949;BME280;6539;49.476;8.484;2022-12-11T04:04:44;100077.78;;;3.01;65.22
12949;BME280;6539;49.476;8.484;2022-12-11T04:07:10;100073.78;;;2.95;65.52
12949;BME280;6539;49.476;8.484;2022-12-11T04:09:36;100069.53;;;2.94;65.76
12949;BME280;6539;49.476;8.484;2022-12-11T04:12:03;100072.66;;;2.96;65.99
12949;BME280;6539;49.476;8.484;2022-12-11T04:14:31;100070.44;;;2.79;66.75
12949;BME280;6539;49.476;8.484;2022-12-11T04:17:30;100068.38;;;2.73;67.04
12949;BME280;6539;49.476;8.484;2022-12-11T04:20:19;100076.31;;;2.62;67.66
12949;BME280;6539;49.476;8.484;2022-12-11T04:23:05;100070.75;;;2.55;68.25
12949;BME280;6539;49.476;8.484;2022-12-11T04:25:50;100066.50;;;2.54;67.98
12949;BME280;6539;49.476;8.484;2022-12-11T04:28:19;100063.78;;;2.54;68.19
12949;BME280;6539;49.476;8.484;2022-12-11T04:30:48;100069.25;;;2.58;68.33
12949;BME280;6539;49.476;8.484;2022-12-11T04:33:16;100063.78;;;2.54;68.66
12949;BME280;6539;49.476;8.484;2022-12-11T04:35:42;100063.84;;;2.58;68.80
12949;BME280;6539;49.476;8.484;2022-12-11T04:38:08;100060.72;;;2.56;68.32
12949;BME280;6539;49.476;8.484;2022-12-11T04:40:33;100065.44;;;2.59;68.20
12949;BME280;6539;49.476;8.484;2022-12-11T04:42:59;100063.06;;;2.57;68.60
12949;BME280;6539;49.476;8.484;2022-12-11T04:45:25;100061.44;;;2.53;68.96
12949;BME280;6539;49.476;8.484;2022-12-11T04:47:51;100061.94;;;2.58;68.88
12949;BME280;6539;49.476;8.484;2022-12-11T04:50:17;100056.56;;;2.62;68.91
12949;BME280;6539;49.476;8.484;2022-12-11T04:52:44;100064.31;;;2.63;68.81
12949;BME280;6539;49.476;8.484;2022-12-11T04:55:12;100063.84;;;2.58;69.21
12949;BME280;6539;49.476;8.484;2022-12-11T04:57:40;100056.09;;;2.56;69.13
12949;BME280;6539;49.476;8.484;2022-12-11T05:00:10;100050.53;;;2.49;69.35
12949;BME280;6539;49.476;8.484;2022-12-11T05:02:42;100051.78;;;2.55;69.44
12949;BME280;6539;49.476;8.484;2022-12-11T05:05:10;100054.09;;;2.53;69.61
12949;BME280;6539;49.476;8.484;2022-12-11T05:07:37;100045.91;;;2.50;69.59
12949;BME280;6539;49.476;8.484;2022-12-11T05:10:08;100049.41;;;2.50;69.45
12949;BME280;6539;49.476;8.484;2022-12-11T05:12:39;100050.59;;;2.53;69.39
12949;BME280;6539;49.476;8.484;2022-12-11T05:15:06;100045.16;;;2.53;69.67
12949;BME280;6539;49.476;8.484;2022-12-11T05:17:34;100048.25;;;2.51;69.99
12949;BME280;6539;49.476;8.484;2022-12-11T05:20:03;100049.47;;;2.54;70.06
12949;BME280;6539;49.476;8.484;2022-12-11T05:22:33;100046.25;;;2.48;70.20
12949;BME280;6539;49.476;8.484;2022-12-11T05:24:59;100042.03;;;2.51;70.08
12949;BME280;6539;49.476;8.484;2022-12-11T05:27:25;100039.69;;;2.49;70.56
12949;BME280;6539;49.476;8.484;2022-12-11T05:29:51;100037.16;;;2.37;71.06
12949;BME280;6539;49.476;8.484;2022-12-11T05:32:19;100040.81;;;2.48;70.56
12949;BME280;6539;49.476;8.484;2022-12-11T05:34:45;100033.44;;;2.45;70.18
12949;BME280;6539;49.476;8.484;2022-12-11T05:37:13;100034.88;;;2.39;70.00
12949;BME280;6539;49.476;8.484;2022-12-11T05:39:39;100030.59;;;2.38;70.44
12949;BME280;6539;49.476;8.484;2022-12-11T05:42:05;100033.47;;;2.26;70.43
12949;BME280;6539;49.476;8.484;2022-12-11T05:44:33;100030.75;;;2.26;70.93
12949;BME280;6539;49.476;8.484;2022-12-11T05:46:59;100037.81;;;2.30;70.78
12949;BME280;6539;49.476;8.484;2022-12-11T05:49:25;100039.72;;;2.30;71.02
12949;BME280;6539;49.476;8.484;2022-12-11T05:51:51;100036.53;;;2.24;70.95
12949;BME280;6539;49.476;8.484;2022-12-11T05:54:19;100032.09;;;2.36;71.22
12949;BME280;6539;49.476;8.484;2022-12-11T05:56:48;100042.69;;;2.44;70.78
12949;BME280;6539;49.476;8.484;2022-12-11T05:59:17;100033.16;;;2.50;70.48
12949;BME280;6539;49.476;8.484;2022-12-11T06:01:44;100025.06;;;2.54;70.42
12949;BME280;6539;49.476;8.484;2022-12-11T06:04:12;100026.63;;;2.55;70.24
12949;BME280;6539;49.476;8.484;2022-12-11T06:06:40;100028.47;;;2.28;69.99
12949;BME280;6539;49.476;8.484;2022-12-11T06:09:15;100035.38;;;2.25;70.71
12949;BME280;6539;49.476;8.484;2022-12-11T06:11:43;100031.88;;;2.25;70.48
12949;BME280;6539;49.476;8.484;2022-12-11T06:14:10;100033.06;;;2.24;70.81
12949;BME280;6539;49.476;8.484;2022-12-11T06:16:40;100026.09;;;2.26;71.21
12949;BME280;6539;49.476;8.484;2022-12-11T06:19:12;100032.31;;;2.27;71.08
12949;BME280;6539;49.476;8.484;2022-12-11T06:21:41;100025.34;;;2.26;70.63
12949;BME280;6539;49.476;8.484;2022-12-11T06:24:10;100019.16;;;2.25;70.35
12949;BME280;6539;49.476;8.484;2022-12-11T06:26:36;100012.31;;;2.12;70.79
12949;BME280;6539;49.476;8.484;2022-12-11T06:29:02;100010.31;;;2.09;71.21
12949;BME280;6539;49.476;8.484;2022-12-11T06:31:30;100017.31;;;2.10;71.17
12949;BME280;6539;49.476;8.484;2022-12-11T06:33:58;100012.31;;;2.12;70.96
12949;BME280;6539;49.476;8.484;2022-12-11T06:36:30;100012.59;;;2.07;71.49
12949;BME280;6539;49.476;8.484;2022-12-11T06:38:57;100011.09;;;2.10;71.27
12949;BME280;6539;49.476;8.484;2022-12-11T06:41:25;100007.91;;;2.04;71.03
12949;BME280;6539;49.476;8.484;2022-12-11T06:43:52;100008.13;;;1.96;71.38
12949;BME280;6539;49.476;8.484;2022-12-11T06:46:18;100014.47;;;2.03;71.15
12949;BME280;6539;49.476;8.484;2022-12-11T06:48:46;100015.09;;;1.97;71.50
12949;BME280;6539;49.476;8.484;2022-12-11T06:51:15;100006.56;;;1.95;70.87
12949;BME280;6539;49.476;8.484;2022-12-11T06:53:42;100014.69;;;1.95;71.44
12949;BME280;6539;49.476;8.484;2022-12-11T06:56:13;100013.19;;;1.97;71.45
12949;BME280;6539;49.476;8.484;2022-12-11T06:58:42;100006.50;;;1.91;71.29
12949;BME280;6539;49.476;8.484;2022-12-11T07:01:15;100009.56;;;1.90;70.94
12949;BME280;6539;49.476;8.484;2022-12-11T07:03:45;100011.97;;;1.95;70.99
12949;BME280;6539;49.476;8.484;2022-12-11T07:06:14;100010.47;;;1.97;71.58
12949;BME280;6539;49.476;8.484;2022-12-11T07:08:42;100008.72;;;2.05;70.74
12949;BME280;6539;49.476;8.484;2022-12-11T07:11:14;100015.69;;;1.87;71.29
12949;BME280;6539;49.476;8.484;2022-12-11T07:13:41;100012.34;;;1.93;71.64
12949;BME280;6539;49.476;8.484;2022-12-11T07:16:09;100009.34;;;1.98;70.78
12949;BME280;6539;49.476;8.484;2022-12-11T07:18:44;100020.94;;;1.99;70.50
12949;BME280;6539;49.476;8.484;2022-12-11T07:21:12;100021.38;;;1.82;70.79
12949;BME280;6539;49.476;8.484;2022-12-11T07:23:41;100020.66;;;1.85;71.41
12949;BME280;6539;49.476;8.484;2022-12-11T07:26:18;100023.44;;;1.88;71.39
12949;BME280;6539;49.476;8.484;2022-12-11T07:28:44;100020.44;;;1.93;70.98
12949;BME280;6539;49.476;8.484;2022-12-11T07:31:14;100024.22;;;1.89;71.00
12949;BME280;6539;49.476;8.484;2022-12-11T07:33:40;100027.84;;;1.96;71.01
12949;BME280;6539;49.476;8.484;2022-12-11T07:36:09;100032.19;;;2.01;70.93
12949;BME280;6539;49.476;8.484;2022-12-11T07:38:35;100031.22;;;2.09;70.79
12949;BME280;6539;49.476;8.484;2022-12-11T07:41:13;100031.00;;;1.98;70.65
12949;BME280;6539;49.476;8.484;2022-12-11T07:43:40;100029.16;;;2.02;70.24
12949;BME280;6539;49.476;8.484;2022-12-11T07:46:14;100022.38;;;1.93;70.36
12949;BME280;6539;49.476;8.484;2022-12-11T07:48:45;100024.06;;;2.01;70.04
12949;BME280;6539;49.476;8.484;2022-12-11T07:51:21;100031.34;;;1.97;69.81
12949;BME280;6539;49.476;8.484;2022-12-11T07:53:59;100037.28;;;2.02;69.95
12949;BME280;6539;49.476;8.484;2022-12-11T07:56:30;100042.31;;;1.85;70.26
12949;BME280;6539;49.476;8.484;2022-12-11T07:58:59;100047.78;;;1.88;71.09
12949;BME280;6539;49.476;8.484;2022-12-11T08:01:27;100042.09;;;1.93;70.27
12949;BME280;6539;49.476;8.484;2022-12-11T08:03:55;100042.75;;;1.87;70.72
12949;BME280;6539;49.476;8.484;2022-12-11T08:06:32;100043.59;;;1.91;70.23
12949;BME280;6539;49.476;8.484;2022-12-11T08:09:00;100040.25;;;1.97;70.05
12949;BME280;6539;49.476;8.484;2022-12-11T08:11:29;100028.13;;;2.10;69.96
12949;BME280;6539;49.476;8.484;2022-12-11T08:13:57;100025.69;;;2.24;69.52
12949;BME280;6539;49.476;8.484;2022-12-11T08:16:29;100033.09;;;2.27;69.20
12949;BME280;6539;49.476;8.484;2022-12-11T08:18:55;100035.38;;;2.25;68.55
12949;BME280;6539;49.476;8.484;2022-12-11T08:21:25;100037.63;;;2.20;68.53
12949;BME280;6539;49.476;8.484;2022-12-11T08:23:54;100035.44;;;2.29;68.33
12949;BME280;6539;49.476;8.484;2022-12-11T08:26:25;100038.28;;;2.36;68.42
12949;BME280;6539;49.476;8.484;2022-12-11T08:28:52;100039.13;;;2.40;67.75
12949;BME280;6539;49.476;8.484;2022-12-11T08:31:23;100028.16;;;2.52;67.72
12949;BME280;6539;49.476;8.484;2022-12-11T08:33:51;100024.78;;;2.59;67.32
12949;BME280;6539;49.476;8.484;2022-12-11T08:36:24;100027.78;;;2.76;67.44
12949;BME280;6539;49.476;8.484;2022-12-11T08:38:50;100026.16;;;2.94;66.95
12949;BME280;6539;49.476;8.484;2022-12-11T08:41:26;100033.06;;;3.15;66.54
12949;BME280;6539;49.476;8.484;2022-12-11T08:43:54;100038.91;;;3.17;65.22
12949;BME280;6539;49.476;8.484;2022-12-11T08:46:23;100050.88;;;3.16;64.94
12949;BME280;6539;49.476;8.484;2022-12-11T08:48:49;100042.72;;;3.12;65.35
12949;BME280;6539;49.476;8.484;2022-12-11T08:51:21;100047.16;;;2.78;66.47
12949;BME280;6539;49.476;8.484;2022-12-11T08:53:49;100048.94;;;2.67;67.31
12949;BME280;6539;49.476;8.484;2022-12-11T08:56:18;100046.03;;;2.79;67.35
12949;BME280;6539;49.476;8.484;2022-12-11T08:58:46;100041.75;;;2.78;67.25
12949;BME280;6539;49.476;8.484;2022-12-11T09:01:19;100043.28;;;2.76;67.51
12949;BME280;6539;49.476;8.484;2022-12-11T09:03:47;100041.03;;;2.81;67.69
12949;BME280;6539;49.476;8.484;2022-12-11T09:06:17;100034.78;;;2.77;67.33
12949;BME280;6539;49.476;8.484;2022-12-11T09:08:49;100030.91;;;2.78;67.45
12949;BME280;6539;49.476;8.484;2022-12-11T09:11:22;100029.84;;;2.60;68.21
12949;BME280;6539;49.476;8.484;2022-12-11T09:13:48;100030.69;;;2.64;68.29
12949;BME280;6539;49.476;8.484;2022-12-11T09:16:19;100037.66;;;2.65;68.30
12949;BME280;6539;49.476;8.484;2022-12-11T09:18:49;100036.03;;;2.61;68.63
12949;BME280;6539;49.476;8.484;2022-12-11T09:21:20;100039.41;;;2.54;69.01
12949;BME280;6539;49.476;8.484;2022-12-11T09:23:46;100032.13;;;2.58;68.84
12949;BME280;6539;49.476;8.484;2022-12-11T09:26:17;100036.03;;;2.61;68.51
12949;BME280;6539;49.476;8.484;2022-12-11T09:28:43;100035.38;;;2.67;68.76
12949;BME280;6539;49.476;8.484;2022-12-11T09:31:26;100041.66;;;2.71;68.91
12949;BME280;6539;49.476;8.484;2022-12-11T09:34:00;100042.34;;;2.68;68.75
12949;BME280;6539;49.476;8.484;2022-12-11T09:36:26;100035.50;;;2.74;68.86
12949;BME280;6539;49.476;8.484;2022-12-11T09:38:59;100041.66;;;2.71;68.08
12949;BME280;6539;49.476;8.484;2022-12-11T09:44:51;100034.78;;;2.77;68.47
12949;BME280;6539;49.476;8.484;2022-12-11T09:50:12;100025.63;;;2.85;68.61
12949;BME280;6539;49.476;8.484;2022-12-11T09:53:06;100025.13;;;3.02;68.28
12949;BME280;6539;49.476;8.484;2022-12-11T09:56:18;100026.97;;;3.21;68.11
12949;BME280;6539;49.476;8.484;2022-12-11T10:01:54;100025.75;;;3.45;66.29
12949;BME280;6539;49.476;8.484;2022-12-11T10:07:21;100019.59;;;3.48;65.96
12949;BME280;6539;49.476;8.484;2022-12-11T10:10:21;100016.06;;;3.44;65.63
12949;BME280;6539;49.476;8.484;2022-12-11T10:13:05;100009.34;;;3.34;66.09
12949;BME280;6539;49.476;8.484;2022-12-11T10:18:37;100016.47;;;3.46;66.47
12949;BME280;6539;49.476;8.484;2022-12-11T10:21:04;100023.53;;;3.54;66.30
12949;BME280;6539;49.476;8.484;2022-12-11T10:23:45;100016.94;;;3.51;66.04
12949;BME280;6539;49.476;8.484;2022-12-11T10:26:19;100012.66;;;3.50;66.47
12949;BME280;6539;49.476;8.484;2022-12-11T10:28:46;100017.28;;;3.50;66.78
12949;BME280;6539;49.476;8.484;2022-12-11T10:31:47;100009.94;;;3.50;66.86
12949;BME280;6539;49.476;8.484;2022-12-11T10:34:24;100014.94;;;3.48;66.85
12949;BME280;6539;49.476;8.484;2022-12-11T10:36:53;100002.59;;;3.51;66.86
12949;BME280;6539;49.476;8.484;2022-12-11T10:39:21;100004.88;;;3.49;66.92
12949;BME280;6539;49.476;8.484;2022-12-11T10:41:53;99992.88;;;3.50;66.71
12949;BME280;6539;49.476;8.484;2022-12-11T10:44:27;100000.19;;;3.46;67.01
12949;BME280;6539;49.476;8.484;2022-12-11T10:47:20;99985.06;;;3.45;67.17
12949;BME280;6539;49.476;8.484;2022-12-11T10:50:01;99972.94;;;3.39;67.47
12949;BME280;6539;49.476;8.484;2022-12-11T10:52:43;99984.59;;;3.39;66.84
12949;BME280;6539;49.476;8.484;2022-12-11T10:55:27;99977.78;;;3.52;67.30
12949;BME280;6539;49.476;8.484;2022-12-11T10:58:01;99979.13;;;3.65;67.44
12949;BME280;6539;49.476;8.484;2022-12-11T11:00:40;99971.72;;;3.62;66.47
12949;BME280;6539;49.476;8.484;2022-12-11T11:03:26;99970.19;;;3.65;66.37
12949;BME280;6539;49.476;8.484;2022-12-11T11:06:16;99961.59;;;3.59;66.25
12949;BME280;6539;49.476;8.484;2022-12-11T11:08:48;99955.00;;;3.57;66.70
12949;BME280;6539;49.476;8.484;2022-12-11T11:14:13;99957.44;;;3.69;66.20
12949;BME280;6539;49.476;8.484;2022-12-11T11:16:43;99953.28;;;3.75;66.21
12949;BME280;6539;49.476;8.484;2022-12-11T11:19:32;99949.03;;;3.77;66.32
12949;BME280;6539;49.476;8.484;2022-12-11T11:22:07;99953.75;;;3.84;66.39
12949;BME280;6539;49.476;8.484;2022-12-11T11:24:54;99951.19;;;3.95;65.91
12949;BME280;6539;49.476;8.484;2022-12-11T11:30:06;99946.19;;;4.00;65.96
12949;BME280;6539;49.476;8.484;2022-12-11T11:32:38;99938.16;;;4.11;66.23
12949;BME280;6539;49.476;8.484;2022-12-11T11:37:45;99936.94;;;4.05;65.74
12949;BME280;6539;49.476;8.484;2022-12-11T11:40:21;99933.81;;;4.03;67.01
12949;BME280;6539;49.476;8.484;2022-12-11T11:45:58;99936.22;;;4.11;66.55
12949;BME280;6539;49.476;8.484;2022-12-11T11:48:44;99943.59;;;4.14;65.79
12949;BME280;6539;49.476;8.484;2022-12-11T11:51:29;99936.84;;;3.98;65.84
12949;BME280;6539;49.476;8.484;2022-12-11T11:54:14;99926.00;;;4.01;66.20
12949;BME280;6539;49.476;8.484;2022-12-11T11:56:43;99929.09;;;4.00;66.75
12949;BME280;6539;49.476;8.484;2022-12-11T11:59:24;99927.59;;;4.02;65.97
12949;BME280;6539;49.476;8.484;2022-12-11T12:01:56;99925.25;;;4.01;66.01
12949;BME280;6539;49.476;8.484;2022-12-11T12:04:33;99929.59;;;4.09;65.86
12949;BME280;6539;49.476;8.484;2022-12-11T12:07:38;99919.53;;;4.13;66.00
12949;BME280;6539;49.476;8.484;2022-12-11T12:10:13;99926.53;;;4.14;66.17
12949;BME280;6539;49.476;8.484;2022-12-11T12:18:21;99924.19;;;4.12;65.06
12949;BME280;6539;49.476;8.484;2022-12-11T12:27:16;99921.94;;;4.18;65.83
12949;BME280;6539;49.476;8.484;2022-12-11T12:41:09;99934.09;;;3.94;65.16
12949;BME280;6539;49.476;8.484;2022-12-11T12:49:01;99914.03;;;4.06;65.47
12949;BME280;6539;49.476;8.484;2022-12-11T12:51:31;99917.19;;;4.11;65.15
12949;BME280;6539;49.476;8.484;2022-12-11T12:54:01;99912.19;;;4.13;64.57
12949;BME280;6539;49.476;8.484;2022-12-11T12:56:30;99910.66;;;4.16;64.84
12949;BME280;6539;49.476;8.484;2022-12-11T12:58:59;99903.69;;;4.18;64.59
12949;BME280;6539;49.476;8.484;2022-12-11T13:01:27;99900.19;;;4.18;64.39
12949;BME280;6539;49.476;8.484;2022-12-11T13:04:05;99897.88;;;4.20;64.12
12949;BME280;6539;49.476;8.484;2022-12-11T13:06:44;99900.22;;;4.21;64.21
12949;BME280;6539;49.476;8.484;2022-12-11T13:09:21;99900.22;;;4.21;64.20
12949;BME280;6539;49.476;8.484;2022-12-11T13:11:54;99889.41;;;4.25;64.13
12949;BME280;6539;49.476;8.484;2022-12-11T13:14:30;99892.47;;;4.23;63.92
12949;BME280;6539;49.476;8.484;2022-12-11T13:19:48;99893.25;;;4.20;63.88
12949;BME280;6539;49.476;8.484;2022-12-11T13:24:48;99896.38;;;4.26;63.80
12949;BME280;6539;49.476;8.484;2022-12-11T13:27:36;99893.31;;;4.31;64.02
12949;BME280;6539;49.476;8.484;2022-12-11T13:30:29;99891.66;;;4.19;63.67
12949;BME280;6539;49.476;8.484;2022-12-11T13:33:04;99902.84;;;4.11;63.95
12949;BME280;6539;49.476;8.484;2022-12-11T13:35:34;99904.81;;;4.14;63.52
12949;BME280;6539;49.476;8.484;2022-12-11T13:38:15;99903.97;;;4.06;63.94
12949;BME280;6539;49.476;8.484;2022-12-11T13:40:48;99909.06;;;4.11;64.10
12949;BME280;6539;49.476;8.484;2022-12-11T13:43:25;99909.88;;;4.15;64.33
12949;BME280;6539;49.476;8.484;2022-12-11T13:45:57;99914.50;;;4.11;63.79
12949;BME280;6539;49.476;8.484;2022-12-11T13:48:46;99911.41;;;4.16;63.81
12949;BME280;6539;49.476;8.484;2022-12-11T13:51:18;99907.16;;;4.15;63.49
12949;BME280;6539;49.476;8.484;2022-12-11T13:53:44;99912.59;;;4.15;63.93
12949;BME280;6539;49.476;8.484;2022-12-11T13:56:18;99916.41;;;4.11;63.66
12949;BME280;6539;49.476;8.484;2022-12-11T13:58:47;99916.44;;;4.14;63.85
12949;BME280;6539;49.476;8.484;2022-12-11T14:01:23;99912.59;;;4.15;63.65
12949;BME280;6539;49.476;8.484;2022-12-11T14:04:07;99921.53;;;4.19;63.78
12949;BME280;6539;49.476;8.484;2022-12-11T14:06:37;99919.56;;;4.16;63.72
12949;BME280;6539;49.476;8.484;2022-12-11T14:09:16;99923.44;;;4.15;63.92
12949;BME280;6539;49.476;8.484;2022-12-11T14:11:44;99924.97;;;4.13;63.89
12949;BME280;6539;49.476;8.484;2022-12-11T14:14:28;99931.91;;;4.10;64.28
12949;BME280;6539;49.476;8.484;2022-12-11T14:16:59;99926.44;;;4.03;64.24
12949;BME280;6539;49.476;8.484;2022-12-11T14:19:26;99920.16;;;3.96;64.30
12949;BME280;6539;49.476;8.484;2022-12-11T14:22:04;99931.78;;;3.96;64.44
12949;BME280;6539;49.476;8.484;2022-12-11T14:24:33;99925.59;;;3.99;64.42
12949;BME280;6539;49.476;8.484;2022-12-11T14:26:58;99938.44;;;4.02;64.20
12949;BME280;6539;49.476;8.484;2022-12-11T14:29:32;99939.22;;;4.03;64.67
12949;BME280;6539;49.476;8.484;2022-12-11T14:32:04;99945.00;;;4.01;64.16
12949;BME280;6539;49.476;8.484;2022-12-11T14:34:42;99934.94;;;4.02;64.37
12949;BME280;6539;49.476;8.484;2022-12-11T14:37:11;99935.66;;;3.95;65.08
12949;BME280;6539;49.476;8.484;2022-12-11T14:42:19;99942.28;;;3.98;65.68
12949;BME280;6539;49.476;8.484;2022-12-11T14:44:52;99938.44;;;4.02;65.60
12949;BME280;6539;49.476;8.484;2022-12-11T14:47:24;99943.56;;;4.07;65.46
12949;BME280;6539;49.476;8.484;2022-12-11T14:50:04;99943.56;;;4.11;65.03
12949;BME280;6539;49.476;8.484;2022-12-11T14:52:43;99947.81;;;4.08;65.34